createdAt,value
2023-03-26T00:01:15.818Z,100806.88
2023-03-26T00:04:22.045Z,100820.88
2023-03-26T00:07:28.310Z,100827.19
2023-03-26T00:10:33.852Z,100821.09
2023-03-26T00:13:40.996Z,100820.16
2023-03-26T00:16:47.868Z,100821.78
2023-03-26T00:19:53.831Z,100818.88
2023-03-26T00:23:02.137Z,100815.47
2023-03-26T00:26:11.422Z,100813.72
2023-03-26T00:29:17.297Z,100812.75
2023-03-26T00:32:28.369Z,100826.53
2023-03-26T00:35:37.407Z,100826.78
2023-03-26T00:38:44.268Z,100812.50
2023-03-26T00:41:54.843Z,100818.09
2023-03-26T00:45:00.709Z,100814.84
2023-03-26T00:48:06.247Z,100810.91
2023-03-26T00:51:15.630Z,100825.34
2023-03-26T00:54:21.649Z,100819.34
2023-03-26T00:57:35.841Z,100806.19
2023-03-26T01:00:57.720Z,100799.19
2023-03-26T01:04:28.601Z,100785.28
2023-03-26T01:07:35.462Z,100787.16
2023-03-26T01:10:42.932Z,100791.78
2023-03-26T01:13:56.665Z,100785.09
2023-03-26T01:17:04.643Z,100776.41
2023-03-26T01:20:20.578Z,100781.38
2023-03-26T01:23:35.645Z,100784.88
2023-03-26T01:26:59.510Z,100780.69
2023-03-26T01:30:17.349Z,100781.81
2023-03-26T01:33:34.399Z,100766.78
2023-03-26T01:36:49.206Z,100760.78
2023-03-26T01:39:58.451Z,100752.63
2023-03-26T01:43:29.052Z,100746.41
2023-03-26T01:46:38.483Z,100749.38
2023-03-26T01:49:45.412Z,100747.88
2023-03-26T01:52:51.020Z,100752.66
2023-03-26T01:56:29.646Z,100742.81
2023-03-26T01:59:47.961Z,100737.59
2023-03-26T02:03:04.696Z,100740.00
2023-03-26T02:06:37.909Z,100746.06
2023-03-26T02:09:48.433Z,100758.81
2023-03-26T02:12:54.565Z,100776.31
2023-03-26T02:16:03.270Z,100778.31
2023-03-26T02:19:16.117Z,100761.38
2023-03-26T02:22:22.594Z,100760.19
2023-03-26T02:25:28.625Z,100758.38
2023-03-26T02:28:37.842Z,100774.47
2023-03-26T02:31:43.635Z,100761.59
2023-03-26T02:34:51.595Z,100759.16
2023-03-26T02:37:57.574Z,100768.78
2023-03-26T02:41:03.575Z,100766.25
2023-03-26T02:44:23.698Z,100760.34
2023-03-26T02:47:37.903Z,100760.44
2023-03-26T02:51:04.631Z,100757.06
2023-03-26T02:54:37.570Z,100758.88
2023-03-26T02:58:03.831Z,100755.78
2023-03-26T03:01:18.715Z,100743.13
2023-03-26T03:04:32.588Z,100753.69
2023-03-26T03:07:38.934Z,100743.53
2023-03-26T03:11:03.637Z,100745.38
2023-03-26T03:14:17.354Z,100753.19
2023-03-26T03:17:22.842Z,100750.06
2023-03-26T03:20:30.631Z,100751.81
2023-03-26T03:23:36.745Z,100744.16
2023-03-26T03:26:50.584Z,100741.59
2023-03-26T03:30:12.871Z,100745.78
2023-03-26T03:33:24.324Z,100744.84
2023-03-26T03:36:30.658Z,100735.63
2023-03-26T03:39:43.330Z,100744.19
2023-03-26T03:42:51.248Z,100754.00
2023-03-26T03:46:06.366Z,100743.84
2023-03-26T03:49:41.650Z,100758.66
2023-03-26T03:52:47.037Z,100761.00
2023-03-26T03:55:58.026Z,100764.94
2023-03-26T03:59:17.868Z,100766.56
2023-03-26T04:02:30.637Z,100762.66
2023-03-26T04:05:40.902Z,100753.69
2023-03-26T04:08:47.004Z,100761.72
2023-03-26T04:11:52.652Z,100762.75
2023-03-26T04:15:24.214Z,100762.59
2023-03-26T04:18:32.725Z,100758.53
2023-03-26T04:21:45.490Z,100758.16
2023-03-26T04:24:54.739Z,100747.97
2023-03-26T04:28:06.948Z,100746.38
2023-03-26T04:31:31.528Z,100737.22
2023-03-26T04:34:39.097Z,100743.34
2023-03-26T04:37:49.089Z,100742.59
2023-03-26T04:41:12.855Z,100740.94
2023-03-26T04:44:44.864Z,100733.59
2023-03-26T04:47:52.307Z,100734.66
2023-03-26T04:50:58.378Z,100734.84
2023-03-26T04:54:03.474Z,100730.69
2023-03-26T04:57:27.568Z,100730.66
2023-03-26T05:00:43.622Z,100735.97
2023-03-26T05:03:49.021Z,100737.63
2023-03-26T05:06:59.794Z,100731.84
2023-03-26T05:10:22.164Z,100735.50
2023-03-26T05:13:35.773Z,100734.34
2023-03-26T05:16:48.328Z,100734.91
2023-03-26T05:19:53.968Z,100742.28
2023-03-26T05:22:59.474Z,100734.22
2023-03-26T05:26:10.302Z,100730.47
2023-03-26T05:29:18.029Z,100721.09
2023-03-26T05:32:31.458Z,100722.13
2023-03-26T05:35:37.048Z,100720.13
2023-03-26T05:38:49.974Z,100722.69
2023-03-26T05:42:22.112Z,100728.63
2023-03-26T05:45:41.463Z,100724.47
2023-03-26T05:48:55.869Z,100730.41
2023-03-26T05:52:01.562Z,100725.91
2023-03-26T05:55:25.955Z,100728.50
2023-03-26T05:59:01.397Z,100722.72
2023-03-26T06:02:07.571Z,100729.28
2023-03-26T06:05:37.753Z,100733.00
2023-03-26T06:09:02.031Z,100742.38
2023-03-26T06:12:11.149Z,100750.09
2023-03-26T06:15:18.156Z,100741.72
2023-03-26T06:18:56.358Z,100755.41
2023-03-26T06:22:23.141Z,100745.56
2023-03-26T06:25:50.056Z,100749.03
2023-03-26T06:29:18.890Z,100749.53
2023-03-26T06:32:40.642Z,100757.09
2023-03-26T06:35:54.087Z,100752.34
2023-03-26T06:38:59.492Z,100742.25
2023-03-26T06:42:04.969Z,100747.56
2023-03-26T06:45:40.084Z,100753.47
2023-03-26T06:49:04.259Z,100742.69
2023-03-26T06:52:32.108Z,100733.31
2023-03-26T06:56:13.416Z,100739.25
2023-03-26T06:59:28.446Z,100741.53
2023-03-26T07:02:52.971Z,100743.69
2023-03-26T07:06:17.504Z,100745.16
2023-03-26T07:09:41.424Z,100736.63
2023-03-26T07:13:05.584Z,100719.63
2023-03-26T07:16:29.991Z,100712.66
2023-03-26T07:19:46.930Z,100713.31
2023-03-26T07:22:52.716Z,100699.94
2023-03-26T07:26:49.204Z,100696.44
2023-03-26T07:30:19.616Z,100703.25
2023-03-26T07:33:48.970Z,100701.00
2023-03-26T07:37:27.186Z,100696.06
2023-03-26T07:41:03.284Z,100675.16
2023-03-26T07:44:41.973Z,100664.91
2023-03-26T07:48:20.464Z,100663.78
2023-03-26T07:51:49.022Z,100659.28
2023-03-26T07:55:16.272Z,100649.19
2023-03-26T07:59:20.695Z,100641.50
2023-03-26T08:02:56.843Z,100634.25
2023-03-26T08:06:34.670Z,100612.16
2023-03-26T08:10:23.854Z,100605.34
2023-03-26T08:14:16.558Z,100611.28
2023-03-26T08:17:38.248Z,100600.44
2023-03-26T08:20:50.536Z,100591.16
2023-03-26T08:24:19.112Z,100590.75
2023-03-26T08:28:02.722Z,100592.66
2023-03-26T08:31:12.055Z,100589.25
2023-03-26T08:34:35.608Z,100582.34
2023-03-26T08:37:41.515Z,100584.81
2023-03-26T08:41:12.396Z,100591.50
2023-03-26T08:44:35.692Z,100585.84
2023-03-26T08:48:19.220Z,100570.84
2023-03-26T08:51:50.900Z,100571.47
2023-03-26T08:55:10.807Z,100579.84
2023-03-26T08:58:38.284Z,100562.34
2023-03-26T09:01:59.189Z,100555.09
2023-03-26T09:05:31.494Z,100554.00
2023-03-26T09:08:54.152Z,100555.06
2023-03-26T09:12:33.789Z,100547.06
2023-03-26T09:16:15.574Z,100539.00
2023-03-26T09:19:26.753Z,100537.94
2023-03-26T09:23:06.354Z,100521.84
2023-03-26T09:26:28.275Z,100511.06
2023-03-26T09:29:52.166Z,100513.72
2023-03-26T09:33:21.984Z,100522.59
2023-03-26T09:36:50.233Z,100522.88
2023-03-26T09:40:14.551Z,100526.38
2023-03-26T09:43:41.616Z,100534.16
2023-03-26T09:46:52.953Z,100530.66
2023-03-26T09:50:16.461Z,100512.84
2023-03-26T09:53:40.672Z,100512.56
2023-03-26T09:57:13.055Z,100521.44
2023-03-26T10:00:17.893Z,100513.00
2023-03-26T10:03:59.951Z,100523.81
2023-03-26T10:07:30.621Z,100510.72
2023-03-26T10:11:02.415Z,100506.94
2023-03-26T10:14:17.970Z,100502.94
2023-03-26T10:18:00.993Z,100505.13
2023-03-26T10:21:33.936Z,100501.72
2023-03-26T10:24:57.765Z,100497.38
2023-03-26T10:28:49.529Z,100493.44
2023-03-26T10:32:22.617Z,100474.25
2023-03-26T10:36:00.124Z,100467.06
2023-03-26T10:39:36.019Z,100461.25
2023-03-26T10:42:55.260Z,100468.31
2023-03-26T10:46:22.446Z,100453.91
2023-03-26T10:49:40.249Z,100444.94
2023-03-26T10:53:41.712Z,100431.47
2023-03-26T10:56:51.797Z,100432.75
2023-03-26T11:00:15.983Z,100416.97
2023-03-26T11:03:44.199Z,100408.72
2023-03-26T11:07:16.799Z,100431.13
2023-03-26T11:10:55.683Z,100433.69
2023-03-26T11:14:34.197Z,100435.00
2023-03-26T11:17:46.744Z,100438.78
2023-03-26T11:21:19.834Z,100438.78
2023-03-26T11:24:58.641Z,100424.34
2023-03-26T11:28:28.081Z,100413.63
2023-03-26T11:31:54.958Z,100410.84
2023-03-26T11:35:19.249Z,100415.69
2023-03-26T11:38:48.524Z,100411.78
2023-03-26T11:42:22.146Z,100398.56
2023-03-26T11:45:32.248Z,100378.38
2023-03-26T11:48:44.696Z,100386.34
2023-03-26T11:51:50.503Z,100387.34
2023-03-26T11:54:59.916Z,100380.44
2023-03-26T11:58:12.590Z,100382.41
2023-03-26T12:01:30.701Z,100374.50
2023-03-26T12:04:41.963Z,100352.69
2023-03-26T12:07:54.472Z,100352.19
2023-03-26T12:11:11.051Z,100335.72
2023-03-26T12:14:24.607Z,100328.22
2023-03-26T12:17:36.073Z,100316.66
2023-03-26T12:20:43.114Z,100309.41
2023-03-26T12:24:05.077Z,100311.00
2023-03-26T12:27:22.022Z,100299.72
2023-03-26T12:30:31.417Z,100297.91
2023-03-26T12:33:39.287Z,100294.81
2023-03-26T12:36:55.929Z,100287.59
2023-03-26T12:40:30.378Z,100284.53
2023-03-26T12:44:50.880Z,100273.25
2023-03-26T12:47:58.583Z,100265.28
2023-03-26T12:51:43.507Z,100251.06
2023-03-26T12:55:27.161Z,100252.31
2023-03-26T12:59:05.655Z,100234.47
2023-03-26T13:02:46.852Z,100228.94
2023-03-26T13:06:19.605Z,100226.34
2023-03-26T13:10:02.184Z,100216.47
2023-03-26T13:13:28.707Z,100211.09
2023-03-26T13:16:58.059Z,100197.50
2023-03-26T13:20:12.641Z,100192.69
2023-03-26T13:23:36.537Z,100183.28
2023-03-26T13:26:50.050Z,100174.59
2023-03-26T13:30:14.872Z,100153.16
2023-03-26T13:33:39.422Z,100154.34
2023-03-26T13:36:53.795Z,100155.19
2023-03-26T13:40:22.558Z,100155.19
2023-03-26T13:43:45.904Z,100135.91
2023-03-26T13:47:03.148Z,100134.88
2023-03-26T13:50:22.345Z,100130.59
2023-03-26T13:53:58.700Z,100124.69
2023-03-26T13:57:12.837Z,100118.84
2023-03-26T14:00:33.283Z,100096.81
2023-03-26T14:04:03.640Z,100080.91
2023-03-26T14:07:26.607Z,100078.81
2023-03-26T14:10:43.679Z,100059.47
2023-03-26T14:14:04.419Z,100054.44
2023-03-26T14:17:28.429Z,100051.75
2023-03-26T14:20:51.770Z,100045.06
2023-03-26T14:24:35.103Z,100024.41
2023-03-26T14:28:04.900Z,100015.00
2023-03-26T14:31:10.396Z,100006.16
2023-03-26T14:34:42.939Z,99999.16
2023-03-26T14:38:30.176Z,99990.28
2023-03-26T14:42:01.692Z,99983.03
2023-03-26T14:45:48.112Z,99968.03
2023-03-26T14:49:05.558Z,99960.69
2023-03-26T14:52:32.037Z,99953.91
2023-03-26T14:55:58.068Z,99942.50
2023-03-26T14:59:32.242Z,99934.50
2023-03-26T15:03:11.314Z,99911.94
2023-03-26T15:06:38.310Z,99908.97
2023-03-26T15:10:28.105Z,99901.69
2023-03-26T15:14:11.294Z,99894.38
2023-03-26T15:17:44.082Z,99902.38
2023-03-26T15:20:49.644Z,99898.84
2023-03-26T15:24:43.594Z,99898.97
2023-03-26T15:28:10.806Z,99915.53
2023-03-26T15:31:53.392Z,99926.22
2023-03-26T15:35:02.998Z,99923.19
2023-03-26T15:38:31.825Z,99932.28
2023-03-26T15:42:07.413Z,99936.13
2023-03-26T15:45:35.673Z,99936.06
2023-03-26T15:48:55.839Z,99931.56
2023-03-26T15:52:08.464Z,99923.25
2023-03-26T15:55:16.705Z,99927.03
2023-03-26T15:58:28.899Z,99935.09
2023-03-26T16:02:05.139Z,99943.19
2023-03-26T16:05:23.354Z,99952.28
2023-03-26T16:08:54.166Z,99968.91
2023-03-26T16:12:04.301Z,99975.13
2023-03-26T16:15:29.904Z,99984.50
2023-03-26T16:18:37.357Z,99983.69
2023-03-26T16:21:54.800Z,99987.72
2023-03-26T16:25:30.669Z,99999.91
2023-03-26T16:28:57.817Z,99987.25
2023-03-26T16:32:29.170Z,99977.25
2023-03-26T16:36:03.518Z,99972.91
2023-03-26T16:39:11.855Z,99981.66
2023-03-26T16:42:20.020Z,99984.34
2023-03-26T16:45:37.443Z,99976.03
2023-03-26T16:49:14.777Z,99982.84
2023-03-26T16:52:34.983Z,100004.84
2023-03-26T16:55:47.348Z,100012.25
2023-03-26T16:59:00.611Z,100009.50
2023-03-26T17:02:24.973Z,100007.75
2023-03-26T17:05:36.905Z,100007.66
2023-03-26T17:08:53.516Z,99980.44
2023-03-26T17:12:01.727Z,99956.53
2023-03-26T17:15:20.152Z,99934.69
2023-03-26T17:18:26.053Z,99939.78
2023-03-26T17:21:45.803Z,99952.75
2023-03-26T17:25:24.881Z,99958.38
2023-03-26T17:29:05.165Z,99941.00
2023-03-26T17:32:15.394Z,99911.59
2023-03-26T17:35:39.305Z,99904.13
2023-03-26T17:38:47.497Z,99901.31
2023-03-26T17:42:01.266Z,99883.63
2023-03-26T17:45:17.940Z,99864.09
2023-03-26T17:48:26.399Z,99858.41
2023-03-26T17:51:59.706Z,99844.03
2023-03-26T17:55:11.003Z,99843.78
2023-03-26T17:58:39.778Z,99834.72
2023-03-26T18:01:48.733Z,99825.88
2023-03-26T18:04:55.963Z,99815.75
2023-03-26T18:08:26.360Z,99822.69
2023-03-26T18:11:43.447Z,99842.63
2023-03-26T18:14:48.778Z,99841.38
2023-03-26T18:18:07.997Z,99840.88
2023-03-26T18:21:27.312Z,99827.47
2023-03-26T18:24:37.986Z,99827.00
2023-03-26T18:27:43.795Z,99804.81
2023-03-26T18:30:49.662Z,99778.66
2023-03-26T18:33:59.435Z,99737.00
2023-03-26T18:37:19.795Z,99737.78
2023-03-26T18:40:40.535Z,99817.63
2023-03-26T18:43:46.161Z,99843.63
2023-03-26T18:46:55.438Z,99862.00
2023-03-26T18:50:01.141Z,99882.56
2023-03-26T18:53:30.026Z,99889.81
2023-03-26T18:56:37.563Z,99870.81
2023-03-26T18:59:45.711Z,99870.06
2023-03-26T19:03:07.464Z,99873.88
2023-03-26T19:06:15.331Z,99871.72
2023-03-26T19:09:31.030Z,99854.09
2023-03-26T19:12:38.982Z,99862.53
2023-03-26T19:15:46.910Z,99866.28
2023-03-26T19:18:53.059Z,99848.59
2023-03-26T19:21:59.622Z,99850.66
2023-03-26T19:25:06.030Z,99853.53
2023-03-26T19:28:19.035Z,99877.06
2023-03-26T19:31:27.416Z,99883.84
2023-03-26T19:34:38.754Z,99899.63
2023-03-26T19:37:54.579Z,99908.97
2023-03-26T19:41:00.087Z,99909.75
2023-03-26T19:44:25.134Z,99901.16
2023-03-26T19:47:49.968Z,99895.34
2023-03-26T19:51:05.656Z,99892.44
2023-03-26T19:54:17.351Z,99879.97
2023-03-26T19:57:23.817Z,99887.34
2023-03-26T20:00:29.251Z,99875.72
2023-03-26T20:03:43.395Z,99875.25
2023-03-26T20:06:49.698Z,99874.38
2023-03-26T20:09:55.229Z,99880.22
2023-03-26T20:13:01.355Z,99861.69
2023-03-26T20:16:16.204Z,99853.50
2023-03-26T20:19:25.380Z,99847.31
2023-03-26T20:22:31.517Z,99856.28
2023-03-26T20:25:46.647Z,99863.16
2023-03-26T20:28:53.456Z,99874.22
2023-03-26T20:31:59.428Z,99875.16
2023-03-26T20:35:35.583Z,99873.19
2023-03-26T20:38:44.129Z,99871.50
2023-03-26T20:41:50.276Z,99868.94
2023-03-26T20:44:56.792Z,99868.00
2023-03-26T20:48:02.979Z,99872.63
2023-03-26T20:51:13.002Z,99879.47
2023-03-26T20:54:22.024Z,99880.97
2023-03-26T20:57:27.574Z,99867.69
2023-03-26T21:00:33.403Z,99862.31
